Time;durP1;ratioP1;P1;durP2;ratioP2;P2;SDS_P1;SDS_P2;PMS_P1;PMS_P2;Temp;Humidity;BMP_temperature;BMP_pressure;BME280_temperature;BME280_humidity;BME280_pressure;Samples;Min_cycle;Max_cycle;Signal;HPM_P1;HPM_P2
2023/09/19 00:00:37;;;;;;;2.10;1.42;;;20.50;87.40;;;;;;5054533;28;20509;-29
2023/09/19 00:03:05;;;;;;;3.92;1.73;;;;;;;;;;5054634;28;20131;-31
2023/09/19 00:05:35;;;;;;;3.53;1.63;;;20.80;88.40;;;;;;5036280;28;20045;-29
2023/09/19 00:08:02;;;;;;;2.75;1.50;;;20.70;87.70;;;;;;5034457;28;20135;-29
2023/09/19 00:10:31;;;;;;;3.25;1.70;;;20.00;70.90;;;;;;5034335;28;20486;-30
2023/09/19 00:12:59;;;;;;;2.65;1.60;;;20.60;87.80;;;;;;5034451;28;20486;-29
2023/09/19 00:15:28;;;;;;;3.90;1.60;;;19.40;86.80;;;;;;5034161;28;20056;-30
2023/09/19 00:17:55;;;;;;;2.97;1.58;;;;;;;;;;5033872;28;20064;-30
2023/09/19 00:20:23;;;;;;;2.55;1.50;;;20.30;88.30;;;;;;5034426;28;20132;-29
2023/09/19 00:22:51;;;;;;;3.00;1.58;;;21.10;88.20;;;;;;5034233;28;20076;-30
2023/09/19 00:25:18;;;;;;;3.13;1.60;;;20.50;87.90;;;;;;5034152;28;20049;-29
2023/09/19 00:27:49;;;;;;;3.50;1.50;;;;;;;;;;5033829;28;20129;-30
2023/09/19 00:30:20;;;;;;;2.08;1.40;;;20.30;88.10;;;;;;5033935;28;20049;-29
2023/09/19 00:32:47;;;;;;;3.20;1.50;;;20.80;88.40;;;;;;5034170;28;20050;-30
2023/09/19 00:35:15;;;;;;;2.67;1.40;;;20.70;83.20;;;;;;5034047;28;20136;-29
2023/09/19 00:37:42;;;;;;;2.17;1.33;;;;;;;;;;5033255;28;20410;-30
2023/09/19 00:40:12;;;;;;;2.88;1.42;;;19.80;87.00;;;;;;5033885;28;20478;-29
2023/09/19 00:42:40;;;;;;;2.25;1.45;;;21.00;87.70;;;;;;5034090;28;20085;-30
2023/09/19 00:45:09;;;;;;;1.85;1.20;;;20.30;88.00;;;;;;5033929;28;20076;-29
2023/09/19 00:47:36;;;;;;;2.78;1.40;;;;;;;;;;5033841;28;20060;-31
2023/09/19 00:50:03;;;;;;;3.97;1.63;;;19.60;85.20;;;;;;5033516;28;20147;-30
2023/09/19 00:52:31;;;;;;;2.38;1.40;;;21.20;87.60;;;;;;5042294;28;20071;-29
2023/09/19 00:55:00;;;;;;;3.30;1.30;;;20.70;76.30;;;;;;5036791;28;20129;-29
2023/09/19 00:57:29;;;;;;;2.58;1.40;;;20.50;87.20;;;;;;5033887;28;20049;-29
2023/09/19 00:59:55;;;;;;;2.20;1.35;;;20.80;87.50;;;;;;5033346;28;20553;-28
2023/09/19 01:02:22;;;;;;;3.55;1.80;;;21.60;82.10;;;;;;5033104;28;20128;-30
2023/09/19 01:04:49;;;;;;;2.08;1.30;;;20.30;87.80;;;;;;5032984;28;20479;-29
2023/09/19 01:07:16;;;;;;;2.55;1.40;;;20.30;87.50;;;;;;5033103;28;20124;-29
2023/09/19 01:09:44;;;;;;;3.55;1.42;;;19.80;86.80;;;;;;5032571;28;20053;-30
2023/09/19 01:12:10;;;;;;;2.97;1.40;;;20.10;80.90;;;;;;5032819;28;20125;-30
2023/09/19 01:14:43;;;;;;;2.95;1.60;;;20.50;87.60;;;;;;5033403;28;20477;-30
2023/09/19 01:17:15;;;;;;;2.03;1.40;;;20.30;87.10;;;;;;5033380;28;20107;-29
2023/09/19 01:20:11;;;;;;;1.45;1.20;;;21.10;87.50;;;;;;5032855;28;20049;-29
2023/09/19 01:22:38;;;;;;;;;;;20.50;71.20;;;;;;5016279;28;20057;-30
2023/09/19 01:25:15;;;;;;;2.53;1.30;;;20.30;81.20;;;;;;5032758;28;19995;-30
2023/09/19 01:28:00;;;;;;;2.13;1.30;;;20.30;87.10;;;;;;5032556;28;20145;-29
2023/09/19 01:30:30;;;;;;;2.60;1.40;;;20.60;84.00;;;;;;5032370;28;20045;-30
2023/09/19 01:32:57;;;;;;;3.33;1.60;;;20.30;77.20;;;;;;5032948;28;20136;-29
2023/09/19 01:35:24;;;;;;;1.88;1.27;;;20.80;87.30;;;;;;5032975;28;20474;-30
2023/09/19 01:37:50;;;;;;;3.25;1.50;;;20.80;87.20;;;;;;5032288;28;20129;-29
2023/09/19 01:40:19;;;;;;;2.80;1.35;;;21.40;71.20;;;;;;5031984;28;20546;-29
2023/09/19 01:42:49;;;;;;;3.13;1.30;;;20.30;76.00;;;;;;5032748;28;20137;-30
2023/09/19 01:45:21;;;;;;;2.67;1.30;;;20.10;78.60;;;;;;5032601;28;20124;-29
2023/09/19 01:47:53;;;;;;;2.45;1.30;;;20.50;86.20;;;;;;5032658;28;20559;-29
2023/09/19 01:50:24;;;;;;;2.33;1.30;;;20.50;70.60;;;;;;5031892;28;20046;-29
2023/09/19 01:52:55;;;;;;;5.07;1.33;;;20.50;70.60;;;;;;5043736;28;20053;-29
2023/09/19 01:55:22;;;;;;;2.50;1.30;;;;;;;;;;5043582;28;20120;-30
2023/09/19 01:57:53;;;;;;;3.58;1.50;;;19.50;86.50;;;;;;5032462;28;20085;-29
2023/09/19 02:00:21;;;;;;;2.45;1.45;;;;;;;;;;5032251;28;20046;-30
2023/09/19 02:02:48;;;;;;;4.05;1.55;;;20.70;73.60;;;;;;5032071;28;20056;-30
2023/09/19 02:05:22;;;;;;;3.20;1.50;;;20.70;86.30;;;;;;5032514;28;20407;-29
2023/09/19 02:07:50;;;;;;;2.65;1.35;;;20.50;87.30;;;;;;5032430;28;20132;-29
2023/09/19 02:10:17;;;;;;;1.85;1.20;;;;;;;;;;5031979;28;20046;-29
2023/09/19 02:12:46;;;;;;;2.63;1.40;;;;;;;;;;5031843;28;20049;-30
2023/09/19 02:15:15;;;;;;;2.22;1.30;;;;;;;;;;5032157;28;20049;-30
2023/09/19 02:17:42;;;;;;;2.40;1.20;;;;;;;;;;5031682;28;20064;-30
2023/09/19 02:20:14;;;;;;;2.72;1.42;;;20.40;70.40;;;;;;5031867;28;20140;-29
2023/09/19 02:22:44;;;;;;;2.42;1.17;;;20.50;79.80;;;;;;5031936;28;20049;-29
2023/09/19 02:25:11;;;;;;;3.45;1.40;;;;;;;;;;5031898;28;20450;-30
2023/09/19 02:27:37;;;;;;;1.98;1.27;;;20.50;86.90;;;;;;5036030;28;20099;-29
2023/09/19 02:30:06;;;;;;;3.75;1.33;;;20.40;70.30;;;;;;5031781;28;20124;-30
2023/09/19 02:32:36;;;;;;;3.47;1.35;;;20.50;74.10;;;;;;5031770;28;20088;-29
2023/09/19 02:35:04;;;;;;;3.28;1.38;;;;;;;;;;5031831;28;20049;-30
2023/09/19 02:37:31;;;;;;;2.22;1.20;;;;;;;;;;5031242;28;20046;-30
2023/09/19 02:39:59;;;;;;;2.78;1.38;;;20.10;81.50;;;;;;5031620;28;20084;-30
2023/09/19 02:42:26;;;;;;;2.42;1.30;;;;;;;;;;5031489;28;20129;-31
2023/09/19 02:44:53;;;;;;;3.53;1.30;;;;;;;;;;5031514;28;20073;-30
2023/09/19 02:47:20;;;;;;;3.10;1.40;;;19.80;79.30;;;;;;5031658;28;20140;-29
2023/09/19 02:49:47;;;;;;;3.92;1.48;;;;;;;;;;5031406;28;20192;-29
2023/09/19 02:52:14;;;;;;;4.10;1.52;;;20.90;74.20;;;;;;5037769;28;20120;-30
2023/09/19 02:54:45;;;;;;;2.65;1.33;;;20.40;86.80;;;;;;5051529;28;20052;-29
2023/09/19 02:57:15;;;;;;;3.92;1.30;;;20.40;75.10;;;;;;5051399;28;20119;-29
2023/09/19 02:59:42;;;;;;;4.07;1.42;;;20.00;74.90;;;;;;5040415;28;20132;-30
2023/09/19 03:02:09;;;;;;;4.20;1.48;;;20.10;87.00;;;;;;5031707;28;20136;-29
2023/09/19 03:04:36;;;;;;;2.28;1.30;;;19.90;71.90;;;;;;5031605;28;20132;-29
2023/09/19 03:07:04;;;;;;;2.72;1.10;;;20.70;86.90;;;;;;5031311;28;20080;-28
2023/09/19 03:09:31;;;;;;;2.80;1.38;;;20.30;87.30;;;;;;5031238;28;20085;-29
2023/09/19 03:11:58;;;;;;;4.55;1.63;;;20.20;87.40;;;;;;5031578;28;20072;-29
2023/09/19 03:14:30;;;;;;;2.25;1.30;;;20.30;70.10;;;;;;5031394;28;20137;-29
2023/09/19 03:16:56;;;;;;;2.42;1.40;;;20.30;81.40;;;;;;5044126;28;20049;-30
2023/09/19 03:19:23;;;;;;;2.20;1.30;;;20.70;77.60;;;;;;5051116;28;20557;-30
2023/09/19 03:21:50;;;;;;;2.75;1.42;;;;;;;;;;5051340;28;20131;-29
2023/09/19 03:24:17;;;;;;;4.03;1.38;;;20.00;87.30;;;;;;5051245;28;20080;-29
2023/09/19 03:26:45;;;;;;;2.95;1.50;;;20.20;86.70;;;;;;5051187;28;20596;-29
2023/09/19 03:29:11;;;;;;;2.78;1.40;;;20.80;76.90;;;;;;5051176;28;20098;-29
2023/09/19 03:31:39;;;;;;;2.47;1.23;;;20.30;70.00;;;;;;5047349;28;20042;-31
2023/09/19 03:34:07;;;;;;;4.30;1.70;;;;;;;;;;5031257;28;20105;-30
2023/09/19 03:36:33;;;;;;;2.83;1.30;;;20.00;86.40;;;;;;5030479;28;20125;-29
2023/09/19 03:39:00;;;;;;;2.40;1.30;;;;;;;;;;5031033;28;20133;-31
2023/09/19 03:41:27;;;;;;;2.63;1.40;;;;;;;;;;5031469;28;20129;-29
2023/09/19 03:43:54;;;;;;;2.20;1.25;;;20.50;86.70;;;;;;5031550;28;20132;-29
2023/09/19 03:46:21;;;;;;;2.75;1.45;;;;;;;;;;5031068;28;20124;-30
2023/09/19 03:48:50;;;;;;;3.72;1.55;;;20.20;86.90;;;;;;5030967;28;20129;-29
2023/09/19 03:51:16;;;;;;;2.30;1.15;;;19.50;86.90;;;;;;5030933;28;20053;-29
2023/09/19 03:53:43;;;;;;;3.42;1.30;;;20.40;75.50;;;;;;5051771;28;20135;-30
2023/09/19 03:56:10;;;;;;;3.05;1.52;;;20.70;72.20;;;;;;5054547;28;20084;-29
2023/09/19 03:58:39;;;;;;;2.42;1.33;;;19.40;72.10;;;;;;5054616;28;20049;-29
2023/09/19 04:01:06;;;;;;;3.47;1.50;;;20.50;80.70;;;;;;5054337;28;20136;-30
2023/09/19 04:03:45;;;;;;;3.85;1.30;;;20.50;87.10;;;;;;5054381;28;20048;-29
2023/09/19 04:06:13;;;;;;;2.20;1.52;;;21.10;87.10;;;;;;5034812;28;20138;-29
2023/09/19 04:08:40;;;;;;;3.95;1.70;;;21.20;87.10;;;;;;5034365;28;20100;-29
2023/09/19 04:11:07;;;;;;;4.22;1.30;;;20.30;87.00;;;;;;5034094;28;20045;-29
2023/09/19 04:13:34;;;;;;;2.45;1.10;;;;;;;;;;5034108;28;20144;-30
2023/09/19 04:16:01;;;;;;;2.33;1.35;;;19.80;72.50;;;;;;5034242;28;20128;-29
2023/09/19 04:18:30;;;;;;;3.42;1.50;;;;;;;;;;5034368;28;20155;-30
2023/09/19 04:20:57;;;;;;;2.65;1.42;;;19.70;86.50;;;;;;5033944;28;20086;-29
2023/09/19 04:23:25;;;;;;;3.50;1.48;;;20.20;69.80;;;;;;5034064;28;20469;-30
2023/09/19 04:25:52;;;;;;;2.47;1.52;;;20.90;72.50;;;;;;5033886;28;20049;-30
2023/09/19 04:28:20;;;;;;;3.45;1.35;;;;;;;;;;5034110;28;20144;-30
2023/09/19 04:30:47;;;;;;;2.58;1.42;;;20.30;81.30;;;;;;5033650;28;20132;-30
2023/09/19 04:33:15;;;;;;;2.30;1.15;;;;;;;;;;5034259;28;20132;-30
2023/09/19 04:35:42;;;;;;;2.38;1.40;;;20.20;86.50;;;;;;5033598;28;20494;-30
2023/09/19 04:38:09;;;;;;;2.83;1.38;;;20.70;86.60;;;;;;5033081;28;20545;-29
2023/09/19 04:40:39;;;;;;;3.35;1.60;;;19.80;86.60;;;;;;5033779;28;20616;-29
2023/09/19 04:43:07;;;;;;;2.53;1.30;;;20.60;86.90;;;;;;5033853;28;20056;-29
2023/09/19 04:45:34;;;;;;;2.47;1.38;;;;;;;;;;5033860;28;20136;-29
2023/09/19 04:48:02;;;;;;;2.90;1.30;;;19.80;76.80;;;;;;5033637;28;20128;-29
2023/09/19 04:50:29;;;;;;;1.95;1.10;;;20.20;75.00;;;;;;5033749;28;20065;-29
2023/09/19 04:52:56;;;;;;;2.78;1.40;;;19.30;85.90;;;;;;5045475;28;20575;-29
2023/09/19 04:55:23;;;;;;;2.08;1.20;;;;;;;;;;5034306;28;20092;-30
2023/09/19 04:57:52;;;;;;;2.92;1.30;;;20.00;87.00;;;;;;5033274;28;20148;-31
2023/09/19 05:00:23;;;;;;;3.60;1.40;;;20.00;71.80;;;;;;5033597;28;20067;-31
2023/09/19 05:02:50;;;;;;;3.42;1.38;;;20.50;86.90;;;;;;5033336;28;20057;-31
2023/09/19 05:05:18;;;;;;;3.92;1.48;;;19.70;69.40;;;;;;5033274;28;20053;-31
2023/09/19 05:07:46;;;;;;;2.75;1.30;;;;;;;;;;5032841;28;20060;-31
2023/09/19 05:10:13;;;;;;;2.63;1.35;;;20.70;86.70;;;;;;5032214;28;20144;-32
2023/09/19 05:12:40;;;;;;;3.17;1.35;;;20.10;75.20;;;;;;5032941;28;20103;-31
2023/09/19 05:15:09;;;;;;;2.83;1.25;;;20.50;86.40;;;;;;5033334;28;20446;-31
2023/09/19 05:17:36;;;;;;;1.60;1.20;;;;;;;;;;5033363;28;20045;-31
2023/09/19 05:20:14;;;;;;;3.00;1.23;;;;;;;;;;5032718;28;20562;-31
2023/09/19 05:22:41;;;;;;;2.80;1.25;;;;;;;;;;5033139;28;20089;-32
2023/09/19 05:25:08;;;;;;;3.88;1.40;;;20.10;69.60;;;;;;5033334;28;20133;-30
2023/09/19 05:27:35;;;;;;;2.63;1.30;;;19.80;86.20;;;;;;5032808;28;20569;-32
2023/09/19 05:30:02;;;;;;;3.30;1.80;;;19.60;86.40;;;;;;5032920;28;20124;-32
2023/09/19 05:32:30;;;;;;;2.60;1.40;;;20.20;86.40;;;;;;5033113;28;20052;-31
2023/09/19 05:34:57;;;;;;;2.85;1.40;;;20.50;86.50;;;;;;5032959;28;20469;-31
2023/09/19 05:37:26;;;;;;;3.00;1.30;;;19.20;86.20;;;;;;5032026;28;20051;-31
2023/09/19 05:39:53;;;;;;;3.17;1.30;;;20.30;77.50;;;;;;5031994;28;20191;-31
2023/09/19 05:42:20;;;;;;;3.25;1.15;;;19.30;86.10;;;;;;5032755;28;20133;-31
2023/09/19 05:44:47;;;;;;;3.30;1.52;;;20.50;82.90;;;;;;5033019;28;20147;-31
2023/09/19 05:47:13;;;;;;;2.60;1.40;;;20.70;86.20;;;;;;5032763;28;20133;-32
2023/09/19 05:49:41;;;;;;;3.25;1.30;;;20.20;86.80;;;;;;5032427;28;20057;-31
2023/09/19 05:52:08;;;;;;;3.92;1.60;;;19.90;86.50;;;;;;5035302;28;20542;-31
2023/09/19 05:54:37;;;;;;;3.50;1.65;;;;;;;;;;5032954;28;20459;-31
2023/09/19 05:57:04;;;;;;;3.03;1.42;;;20.40;86.50;;;;;;5032658;28;20109;-31
2023/09/19 05:59:33;;;;;;;2.70;1.45;;;;;;;;;;5032381;28;20466;-31
2023/09/19 06:02:00;;;;;;;3.08;1.60;;;20.40;86.90;;;;;;5031707;28;20461;-32
2023/09/19 06:04:27;;;;;;;5.07;1.40;;;;;;;;;;5031877;28;20155;-31
2023/09/19 06:06:55;;;;;;;4.18;1.60;;;20.10;79.40;;;;;;5032081;28;20053;-32
2023/09/19 06:09:23;;;;;;;2.70;1.30;;;19.70;86.60;;;;;;5031559;28;20073;-31
2023/09/19 06:11:49;;;;;;;3.35;1.60;;;20.20;75.30;;;;;;5031350;28;20042;-31
2023/09/19 06:14:17;;;;;;;3.75;1.75;;;20.30;86.40;;;;;;5031255;28;20128;-31
2023/09/19 06:16:45;;;;;;;3.58;1.42;;;19.50;74.70;;;;;;5032214;28;20053;-31
2023/09/19 06:19:12;;;;;;;3.03;1.50;;;;;;;;;;5032436;28;20056;-30
2023/09/19 06:21:38;;;;;;;6.55;1.80;;;19.90;86.40;;;;;;5030581;28;20475;-31
2023/09/19 06:24:07;;;;;;;2.88;1.40;;;20.30;86.80;;;;;;5032468;28;20589;-31
2023/09/19 06:26:34;;;;;;;3.17;1.40;;;20.50;79.40;;;;;;5031777;28;20128;-31
2023/09/19 06:29:01;;;;;;;5.60;1.52;;;;;;;;;;5032067;28;20136;-31
2023/09/19 06:31:28;;;;;;;3.58;1.50;;;19.00;74.60;;;;;;5031616;28;20050;-31
2023/09/19 06:33:55;;;;;;;5.82;1.73;;;19.70;86.60;;;;;;5031849;28;20128;-32
2023/09/19 06:36:22;;;;;;;2.80;1.40;;;20.30;86.20;;;;;;5031556;28;20132;-32
2023/09/19 06:38:51;;;;;;;3.35;1.40;;;20.30;86.70;;;;;;5031956;28;20549;-32
2023/09/19 06:41:19;;;;;;;3.90;1.52;;;20.60;74.10;;;;;;5035409;28;20041;-32
2023/09/19 06:43:46;;;;;;;5.20;2.28;;;;;;;;;;5034576;28;20422;-31
2023/09/19 06:46:13;;;;;;;4.57;1.60;;;20.00;86.40;;;;;;5022153;28;20120;-32
2023/09/19 06:48:40;;;;;;;5.72;1.50;;;20.40;86.30;;;;;;5022004;28;20054;-32
2023/09/19 06:51:08;;;;;;;4.30;1.63;;;19.90;82.60;;;;;;5020442;28;20069;-32
2023/09/19 06:53:35;;;;;;;2.70;1.40;;;19.90;71.70;;;;;;5033480;28;20049;-32
2023/09/19 06:56:02;;;;;;;4.70;1.50;;;20.30;86.20;;;;;;5032130;28;20064;-32
2023/09/19 06:58:31;;;;;;;3.10;1.48;;;20.50;86.60;;;;;;5030504;28;20053;-32
2023/09/19 07:00:58;;;;;;;3.22;1.20;;;20.20;86.50;;;;;;5031372;28;20487;-33
2023/09/19 07:03:26;;;;;;;4.07;1.42;;;;;;;;;;5031777;28;20202;-32
2023/09/19 07:05:55;;;;;;;4.25;1.45;;;19.70;71.60;;;;;;5031689;28;20133;-31
2023/09/19 07:08:22;;;;;;;3.13;1.60;;;20.30;86.20;;;;;;5031699;28;20059;-32
2023/09/19 07:10:49;;;;;;;3.35;1.38;;;;;;;;;;5031478;28;20146;-30
2023/09/19 07:13:17;;;;;;;4.18;1.42;;;;;;;;;;5031516;28;20124;-32
2023/09/19 07:15:47;;;;;;;2.92;1.42;;;20.20;86.00;;;;;;5031220;28;20051;-32
2023/09/19 07:18:14;;;;;;;2.70;1.35;;;19.80;69.30;;;;;;5031716;28;20049;-29
2023/09/19 07:20:45;;;;;;;2.42;1.30;;;19.90;86.20;;;;;;5025294;28;20128;-29
2023/09/19 07:23:13;;;;;;;4.05;1.52;;;;;;;;;;5018013;28;20060;-30
2023/09/19 07:25:40;;;;;;;4.05;1.70;;;20.30;86.40;;;;;;5011653;28;20148;-29
2023/09/19 07:28:07;;;;;;;2.47;1.27;;;;;;;;;;5014530;28;20046;-29
2023/09/19 07:30:37;;;;;;;5.82;1.80;;;19.10;72.70;;;;;;5020529;28;20529;-29
2023/09/19 07:33:05;;;;;;;4.50;1.65;;;20.00;69.20;;;;;;5035106;28;20166;-30
2023/09/19 07:35:32;;;;;;;4.05;1.52;;;19.40;85.60;;;;;;5034984;28;20410;-29
2023/09/19 07:38:01;;;;;;;4.68;1.70;;;;;;;;;;5034583;28;20126;-30
2023/09/19 07:40:28;;;;;;;3.58;1.63;;;19.70;85.80;;;;;;5034849;28;20049;-29
2023/09/19 07:42:55;;;;;;;4.00;1.80;;;19.80;86.00;;;;;;5035006;28;20056;-29
2023/09/19 07:45:22;;;;;;;3.45;1.50;;;19.90;74.10;;;;;;5029332;28;20074;-30
2023/09/19 07:47:49;;;;;;;2.95;1.50;;;20.40;86.40;;;;;;5029560;28;20457;-31
2023/09/19 07:50:18;;;;;;;3.78;1.60;;;20.00;69.20;;;;;;5017465;28;20129;-31
2023/09/19 07:52:45;;;;;;;4.40;1.50;;;;;;;;;;5030902;28;20053;-29
2023/09/19 07:55:16;;;;;;;3.03;1.45;;;18.80;85.30;;;;;;5034887;28;20073;-29
2023/09/19 07:57:43;;;;;;;4.10;1.60;;;20.10;85.90;;;;;;5034479;28;20451;-30
2023/09/19 08:00:12;;;;;;;3.75;1.60;;;20.20;86.10;;;;;;5034741;28;20128;-29
2023/09/19 08:02:39;;;;;;;3.67;1.52;;;20.50;73.80;;;;;;5031139;28;20112;-30
2023/09/19 08:05:09;;;;;;;5.22;1.90;;;20.00;69.10;;;;;;5034037;28;20045;-29
2023/09/19 08:07:37;;;;;;;3.75;1.50;;;20.00;69.10;;;;;;5031712;28;20049;-29
2023/09/19 08:10:07;;;;;;;2.55;1.40;;;20.40;86.20;;;;;;5034196;28;20107;-29
2023/09/19 08:12:35;;;;;;;3.13;1.50;;;;;;;;;;5033851;28;20041;-29
2023/09/19 08:15:02;;;;;;;2.80;1.30;;;20.00;86.20;;;;;;5034012;28;20045;-29
2023/09/19 08:17:29;;;;;;;5.75;1.70;;;;;;;;;;5033920;28;20045;-31
2023/09/19 08:19:56;;;;;;;4.63;1.80;;;19.20;85.40;;;;;;5031309;28;20095;-29
2023/09/19 08:22:24;;;;;;;2.47;1.13;;;;;;;;;;5033978;28;20067;-29
2023/09/19 08:24:52;;;;;;;2.67;1.60;;;20.30;75.90;;;;;;5033932;28;20057;-29
2023/09/19 08:27:19;;;;;;;3.72;1.63;;;18.80;85.30;;;;;;5033802;28;20124;-30
2023/09/19 08:29:46;;;;;;;4.32;1.50;;;20.10;75.40;;;;;;5033561;28;20055;-29
2023/09/19 08:32:13;;;;;;;4.07;1.50;;;20.40;86.10;;;;;;5033347;28;20045;-29
2023/09/19 08:34:39;;;;;;;3.92;1.50;;;20.00;68.90;;;;;;5034700;28;20069;-30
2023/09/19 08:37:07;;;;;;;2.92;1.35;;;21.00;86.20;;;;;;5027734;28;20099;-29
2023/09/19 08:39:36;;;;;;;3.80;1.45;;;;;;;;;;5033365;28;20053;-31
2023/09/19 08:42:05;;;;;;;3.92;1.60;;;19.00;85.40;;;;;;5033608;28;20058;-29
2023/09/19 08:44:31;;;;;;;4.55;1.85;;;19.70;85.80;;;;;;5033881;28;20684;-29
2023/09/19 08:47:03;;;;;;;3.05;1.40;;;19.80;76.40;;;;;;5027249;28;20052;-31
2023/09/19 08:49:37;;;;;;;5.65;1.80;;;20.40;85.80;;;;;;5033323;28;20052;-31
2023/09/19 08:52:08;;;;;;;5.57;1.50;;;20.00;86.00;;;;;;5038479;28;20079;-31
2023/09/19 08:54:39;;;;;;;3.28;1.55;;;20.10;80.30;;;;;;5053742;28;20127;-31
2023/09/19 08:57:10;;;;;;;3.38;1.65;;;19.80;85.30;;;;;;5053401;28;20056;-32
2023/09/19 08:59:39;;;;;;;4.60;1.70;;;19.90;85.80;;;;;;5053726;28;20095;-31
2023/09/19 09:02:11;;;;;;;3.33;1.52;;;20.10;68.80;;;;;;5037951;28;20049;-31
2023/09/19 09:04:39;;;;;;;3.22;1.45;;;19.30;86.00;;;;;;5033677;28;20045;-31
2023/09/19 09:07:05;;;;;;;3.78;1.58;;;19.80;85.60;;;;;;5033311;28;20137;-31
2023/09/19 09:09:32;;;;;;;4.55;1.70;;;20.20;85.80;;;;;;5032783;28;20128;-31
2023/09/19 09:11:59;;;;;;;4.45;1.70;;;19.90;71.90;;;;;;5033228;28;20128;-31
2023/09/19 09:14:27;;;;;;;6.25;1.90;;;19.50;86.00;;;;;;5033171;28;20128;-32
2023/09/19 09:16:56;;;;;;;4.47;1.88;;;19.80;86.20;;;;;;5033131;28;20136;-31
2023/09/19 09:19:24;;;;;;;3.53;1.80;;;;;;;;;;5033322;28;20064;-31
2023/09/19 09:21:51;;;;;;;4.07;1.73;;;20.10;69.50;;;;;;5022405;28;20050;-31
2023/09/19 09:24:27;;;;;;;5.45;1.73;;;20.20;86.50;;;;;;5013446;28;20561;-31
2023/09/19 09:26:54;;;;;;;3.90;1.80;;;19.40;85.40;;;;;;5012851;28;20553;-31
2023/09/19 09:29:39;;;;;;;3.85;1.70;;;20.10;68.90;;;;;;5027125;28;20065;-31
2023/09/19 09:32:19;;;;;;;8.15;1.90;;;20.00;85.90;;;;;;5032902;28;20132;-29
2023/09/19 09:34:47;;;;;;;5.07;1.60;;;;;;;;;;5032998;28;20137;-29
2023/09/19 09:37:19;;;;;;;4.28;1.80;;;20.30;68.90;;;;;;5032364;28;20057;-30
2023/09/19 09:39:56;;;;;;;4.22;2.00;;;20.40;77.20;;;;;;5032758;28;20525;-29
2023/09/19 09:42:35;;;;;;;4.55;1.50;;;19.80;85.10;;;;;;5032537;28;20041;-29
2023/09/19 09:45:19;;;;;;;4.63;1.80;;;19.70;85.50;;;;;;5032742;28;20115;-29
2023/09/19 09:47:54;;;;;;;4.63;1.60;;;20.70;73.60;;;;;;5032899;28;20418;-30
2023/09/19 09:50:37;;;;;;;5.50;1.80;;;20.10;85.60;;;;;;5031837;28;20045;-29
2023/09/19 09:53:06;;;;;;;4.97;1.98;;;20.10;77.00;;;;;;5045442;28;20502;-29
2023/09/19 09:55:53;;;;;;;4.65;1.80;;;20.10;68.80;;;;;;5049068;28;20043;-30
2023/09/19 09:58:23;;;;;;;8.40;2.00;;;20.30;85.60;;;;;;5032536;28;20084;-29
2023/09/19 10:00:57;;;;;;;5.20;1.83;;;20.10;68.60;;;;;;5032306;28;20045;-31
2023/09/19 10:03:32;;;;;;;5.25;1.88;;;20.10;85.50;;;;;;5032616;28;20053;-28
2023/09/19 10:06:08;;;;;;;6.22;2.35;;;20.40;81.20;;;;;;5032534;28;20552;-29
2023/09/19 10:08:36;;;;;;;5.63;1.83;;;20.30;85.30;;;;;;5032663;28;20128;-29
2023/09/19 10:11:16;;;;;;;4.95;1.75;;;20.10;68.50;;;;;;5031235;28;20441;-31
2023/09/19 10:13:43;;;;;;;5.05;2.10;;;;;;;;;;5032253;28;20049;-30
2023/09/19 10:16:10;;;;;;;6.28;1.90;;;21.00;75.20;;;;;;5031206;28;20139;-29
2023/09/19 10:18:39;;;;;;;6.43;2.10;;;20.20;68.20;;;;;;5032170;28;20053;-30
2023/09/19 10:21:07;;;;;;;5.35;1.75;;;20.30;84.80;;;;;;5032347;28;20521;-29
2023/09/19 10:23:34;;;;;;;7.35;1.95;;;20.80;85.10;;;;;;5031687;28;20096;-29
2023/09/19 10:26:01;;;;;;;5.35;1.83;;;20.60;85.90;;;;;;5031899;28;20056;-29
2023/09/19 10:28:30;;;;;;;4.38;1.80;;;19.60;84.60;;;;;;5032174;28;20095;-29
2023/09/19 10:30:57;;;;;;;4.88;2.08;;;;;;;;;;5031805;28;20502;-30
2023/09/19 10:33:26;;;;;;;5.57;1.83;;;20.50;84.90;;;;;;5031925;28;20049;-29
2023/09/19 10:35:55;;;;;;;6.00;2.10;;;20.50;85.20;;;;;;5031845;28;20084;-29
2023/09/19 10:38:24;;;;;;;7.55;2.60;;;20.00;84.50;;;;;;5031724;28;20049;-29
2023/09/19 10:40:52;;;;;;;6.90;2.50;;;20.20;67.80;;;;;;5032086;28;20124;-30
2023/09/19 10:43:20;;;;;;;6.68;1.92;;;21.20;85.20;;;;;;5031922;28;20045;-28
2023/09/19 10:45:49;;;;;;;4.70;1.55;;;20.30;81.50;;;;;;5031867;28;20053;-29
2023/09/19 10:48:18;;;;;;;7.65;2.10;;;;;;;;;;5031784;28;20560;-30
2023/09/19 10:50:47;;;;;;;6.80;2.10;;;20.80;85.60;;;;;;5031391;28;20045;-29
2023/09/19 10:53:15;;;;;;;6.10;1.73;;;20.30;67.70;;;;;;5046115;28;20041;-31
2023/09/19 10:55:43;;;;;;;6.40;2.00;;;;;;;;;;5051937;28;20052;-32
2023/09/19 10:58:15;;;;;;;3.20;1.55;;;19.40;84.30;;;;;;5051581;28;20232;-29
2023/09/19 11:00:51;;;;;;;3.63;1.52;;;20.40;84.90;;;;;;5034083;28;20049;-29
2023/09/19 11:03:21;;;;;;;4.65;1.40;;;20.40;76.80;;;;;;5036128;28;20473;-29
2023/09/19 11:06:06;;;;;;;7.15;1.77;;;19.80;85.10;;;;;;5035796;28;20132;-29
2023/09/19 11:09:15;;;;;;;7.35;2.05;;;20.50;84.40;;;;;;5035771;28;20494;-31
2023/09/19 11:11:53;;;;;;;4.40;1.60;;;20.30;67.60;;;;;;5035357;28;20510;-31
2023/09/19 11:14:39;;;;;;;6.20;1.88;;;20.30;67.50;;;;;;5035656;28;20052;-30
2023/09/19 11:17:40;;;;;;;3.53;1.70;;;20.30;67.60;;;;;;5035629;28;20132;-31
2023/09/19 11:20:35;;;;;;;5.45;1.90;;;20.30;67.70;;;;;;5032506;28;20049;-32
2023/09/19 11:23:24;;;;;;;6.10;1.73;;;19.80;84.40;;;;;;5035550;28;20051;-31
2023/09/19 11:25:54;;;;;;;4.80;1.80;;;20.30;67.80;;;;;;5035441;28;20038;-31
2023/09/19 11:28:39;;;;;;;5.88;1.80;;;20.00;84.30;;;;;;5035428;28;20111;-29
2023/09/19 11:31:56;;;;;;;4.72;1.90;;;20.10;84.80;;;;;;5035014;28;20053;-29
2023/09/19 11:34:44;;;;;;;6.03;1.90;;;19.40;84.30;;;;;;5015585;28;20054;-29
2023/09/19 11:38:02;;;;;;;5.25;2.10;;;20.30;67.60;;;;;;5026013;28;20426;-30
2023/09/19 11:40:30;;;;;;;4.82;1.90;;;20.20;84.80;;;;;;5034840;28;20049;-29
2023/09/19 11:42:59;;;;;;;3.92;1.95;;;20.60;84.40;;;;;;5035428;28;20048;-29
2023/09/19 11:46:05;;;;;;;6.20;1.80;;;20.10;84.40;;;;;;5034865;28;20049;-29
2023/09/19 11:48:32;;;;;;;4.45;1.90;;;20.40;84.50;;;;;;5034913;28;20497;-30
2023/09/19 11:51:00;;;;;;;4.50;1.90;;;20.40;84.60;;;;;;5034998;28;20152;-29
2023/09/19 11:53:33;;;;;;;6.40;1.80;;;20.40;67.60;;;;;;5051239;28;20123;-28
2023/09/19 11:56:00;;;;;;;5.40;1.73;;;;;;;;;;5054741;28;20498;-30
2023/09/19 11:58:29;;;;;;;7.13;2.03;;;20.10;84.70;;;;;;5054626;28;20051;-29
2023/09/19 12:00:58;;;;;;;3.65;1.60;;;20.70;83.80;;;;;;5035682;28;20057;-30
2023/09/19 12:03:27;;;;;;;5.50;2.10;;;20.50;84.10;;;;;;5034976;28;20486;-29
2023/09/19 12:05:54;;;;;;;3.95;1.85;;;19.50;76.00;;;;;;5034762;28;20053;-29
2023/09/19 12:08:21;;;;;;;4.88;2.03;;;20.10;79.30;;;;;;5034522;28;20052;-29
2023/09/19 12:10:48;;;;;;;3.70;1.65;;;20.70;84.90;;;;;;5034444;28;20060;-29
2023/09/19 12:13:17;;;;;;;4.47;1.80;;;21.10;84.20;;;;;;5033582;28;20081;-29
2023/09/19 12:15:47;;;;;;;5.60;1.92;;;20.40;67.20;;;;;;5034535;28;20140;-30
2023/09/19 12:18:27;;;;;;;5.63;1.92;;;20.40;67.20;;;;;;5034288;28;20049;-29
2023/09/19 12:20:55;;;;;;;4.03;1.73;;;20.50;83.80;;;;;;5034426;28;20394;-29
2023/09/19 12:23:22;;;;;;;5.03;1.95;;;20.80;84.40;;;;;;5034379;28;20046;-29
2023/09/19 12:25:52;;;;;;;8.88;1.85;;;;;;;;;;5034223;28;20050;-31
2023/09/19 12:28:21;;;;;;;4.80;1.70;;;21.00;72.10;;;;;;5033772;28;20053;-31
2023/09/19 12:30:49;;;;;;;4.18;1.80;;;20.50;84.20;;;;;;5034321;28;20061;-31
2023/09/19 12:33:19;;;;;;;6.30;2.00;;;20.10;83.60;;;;;;5034247;28;20491;-31
2023/09/19 12:35:46;;;;;;;6.43;2.20;;;20.50;84.30;;;;;;5034504;28;20103;-32
2023/09/19 12:38:24;;;;;;;7.47;1.98;;;20.00;83.40;;;;;;5033573;28;20415;-32
2023/09/19 12:40:51;;;;;;;3.10;1.50;;;;;;;;;;5033449;28;20050;-31
2023/09/19 12:43:18;;;;;;;5.68;1.80;;;20.70;84.30;;;;;;5034137;28;20046;-32
2023/09/19 12:45:45;;;;;;;9.85;2.13;;;19.90;69.10;;;;;;5034045;28;20055;-31
2023/09/19 12:48:31;;;;;;;4.97;1.65;;;21.30;84.20;;;;;;5033917;28;20049;-31
2023/09/19 12:51:07;;;;;;;4.68;1.73;;;20.70;84.10;;;;;;5033909;28;20099;-31
2023/09/19 12:53:36;;;;;;;6.80;2.03;;;19.30;76.80;;;;;;5050763;28;20430;-31
2023/09/19 12:56:05;;;;;;;5.13;2.28;;;20.50;84.00;;;;;;5033776;28;20060;-31
2023/09/19 12:58:34;;;;;;;4.90;1.75;;;20.80;84.80;;;;;;5033988;28;20053;-31
2023/09/19 13:01:01;;;;;;;5.32;1.70;;;21.40;69.70;;;;;;5033298;28;20049;-31
2023/09/19 13:03:34;;;;;;;5.80;1.70;;;20.00;71.00;;;;;;5033573;28;20451;-31
2023/09/19 13:06:02;;;;;;;5.35;1.80;;;20.20;84.60;;;;;;5033920;28;20057;-31
2023/09/19 13:08:33;;;;;;;6.53;1.88;;;20.60;84.80;;;;;;5033056;28;20041;-31
2023/09/19 13:11:09;;;;;;;3.80;1.45;;;20.80;67.40;;;;;;5032684;28;20049;-30
2023/09/19 13:13:37;;;;;;;5.93;1.88;;;;;;;;;;5033431;28;20091;-30
2023/09/19 13:16:05;;;;;;;3.38;1.60;;;19.10;83.60;;;;;;5033147;28;20506;-31
2023/09/19 13:18:42;;;;;;;5.68;1.80;;;19.70;83.50;;;;;;5030575;28;20396;-31